createdAt,value
2023-03-08T00:02:23.850Z,2.37
2023-03-08T00:04:55.738Z,4.77
2023-03-08T00:07:26.320Z,6.00
2023-03-08T00:09:57.262Z,3.50
2023-03-08T00:12:25.802Z,4.73
2023-03-08T00:14:57.370Z,4.93
2023-03-08T00:17:26.297Z,4.60
2023-03-08T00:19:54.485Z,2.47
2023-03-08T00:22:26.603Z,2.47
2023-03-08T00:24:55.890Z,1.93
2023-03-08T00:27:23.981Z,2.87
2023-03-08T00:29:53.824Z,3.53
2023-03-08T00:32:21.973Z,4.67
2023-03-08T00:34:53.845Z,2.27
2023-03-08T00:37:22.961Z,4.27
2023-03-08T00:39:56.231Z,6.23
2023-03-08T00:42:25.286Z,4.13
2023-03-08T00:44:53.777Z,3.53
2023-03-08T00:47:26.844Z,3.27
2023-03-08T00:49:55.667Z,2.80
2023-03-08T00:52:23.957Z,3.70
2023-03-08T00:54:52.092Z,3.00
2023-03-08T00:57:22.212Z,3.93
2023-03-08T00:59:50.850Z,4.40
2023-03-08T01:02:19.560Z,3.70
2023-03-08T01:04:49.845Z,3.87
2023-03-08T01:07:18.225Z,5.37
2023-03-08T01:09:46.541Z,3.37
2023-03-08T01:12:15.871Z,3.40
2023-03-08T01:14:45.361Z,2.83
2023-03-08T01:17:15.843Z,4.90
2023-03-08T01:19:44.104Z,3.23
2023-03-08T01:22:12.822Z,3.70
2023-03-08T01:24:46.470Z,2.90
2023-03-08T01:27:16.861Z,2.50
2023-03-08T01:29:46.856Z,2.50
2023-03-08T01:32:15.133Z,3.20
2023-03-08T01:34:43.269Z,2.80
2023-03-08T01:37:36.664Z,2.97
2023-03-08T01:40:06.555Z,2.47
2023-03-08T01:42:38.884Z,3.27
2023-03-08T01:45:47.880Z,3.03
2023-03-08T01:48:20.725Z,2.30
2023-03-08T01:50:59.856Z,6.03
2023-03-08T01:53:28.207Z,3.70
2023-03-08T01:55:57.873Z,2.30
2023-03-08T01:58:27.142Z,1.90
2023-03-08T02:00:57.927Z,2.43
2023-03-08T02:03:26.340Z,3.00
2023-03-08T02:05:54.616Z,3.90
2023-03-08T02:08:24.872Z,2.93
2023-03-08T02:10:54.880Z,2.30
2023-03-08T02:13:23.199Z,3.87
2023-03-08T02:15:55.470Z,3.30
2023-03-08T02:18:25.588Z,3.43
2023-03-08T02:20:53.819Z,3.20
2023-03-08T02:23:25.891Z,2.37
2023-03-08T02:25:55.909Z,2.23
2023-03-08T02:28:27.870Z,2.67
2023-03-08T02:30:56.401Z,2.83
2023-03-08T02:36:42.902Z,2.07
2023-03-08T02:39:14.041Z,3.03
2023-03-08T02:41:46.753Z,2.17
2023-03-08T02:44:14.978Z,3.03
2023-03-08T02:46:43.848Z,2.43
2023-03-08T02:49:12.893Z,1.83
2023-03-08T02:51:41.536Z,2.60
2023-03-08T02:54:16.830Z,2.03
2023-03-08T02:56:46.915Z,4.17
2023-03-08T02:59:15.986Z,3.03
2023-03-08T03:01:45.741Z,3.13
2023-03-08T03:04:15.927Z,1.60
2023-03-08T03:06:44.878Z,2.93
2023-03-08T03:09:17.077Z,5.90
2023-03-08T03:11:45.358Z,4.10
2023-03-08T03:14:14.418Z,2.40
2023-03-08T03:16:47.961Z,2.63
2023-03-08T03:19:16.862Z,1.70
2023-03-08T03:21:45.193Z,5.10
2023-03-08T03:24:14.430Z,2.63
2023-03-08T03:26:53.888Z,5.77
2023-03-08T03:29:27.349Z,3.70
2023-03-08T03:32:11.247Z,4.63
2023-03-08T03:34:39.883Z,6.13
2023-03-08T03:37:08.164Z,4.87
2023-03-08T03:39:39.114Z,6.00
2023-03-08T03:42:11.535Z,6.87
2023-03-08T03:44:45.942Z,4.80
2023-03-08T03:47:19.862Z,4.60
2023-03-08T03:49:49.625Z,4.10
2023-03-08T03:52:21.870Z,5.17
2023-03-08T03:55:00.097Z,4.67
2023-03-08T03:57:31.072Z,4.30
2023-03-08T04:00:03.476Z,5.23
2023-03-08T04:02:41.723Z,4.67
2023-03-08T04:05:14.597Z,6.13
2023-03-08T04:07:42.924Z,5.57
2023-03-08T04:10:12.271Z,10.20
2023-03-08T04:12:45.891Z,6.47
2023-03-08T04:15:14.056Z,5.90
2023-03-08T04:17:43.343Z,7.17
2023-03-08T04:20:14.499Z,9.50
2023-03-08T04:22:48.206Z,8.37
2023-03-08T04:25:22.912Z,7.50
2023-03-08T04:27:57.794Z,8.10
2023-03-08T04:30:27.420Z,9.10
2023-03-08T04:32:57.403Z,8.37
2023-03-08T04:35:32.989Z,9.23
2023-03-08T04:38:01.224Z,7.90
2023-03-08T04:40:31.101Z,8.53
2023-03-08T04:43:05.109Z,10.57
2023-03-08T04:45:38.767Z,11.70
2023-03-08T04:48:12.072Z,9.57
2023-03-08T04:50:41.896Z,11.37
2023-03-08T04:53:11.944Z,11.23
2023-03-08T04:55:44.010Z,12.27
2023-03-08T04:58:16.077Z,13.03
2023-03-08T05:00:44.905Z,15.13
2023-03-08T05:03:13.574Z,10.10
2023-03-08T05:05:46.882Z,15.47
2023-03-08T05:08:15.429Z,13.70
2023-03-08T05:10:48.870Z,16.73
2023-03-08T05:13:19.232Z,18.67
2023-03-08T05:15:50.523Z,16.67
2023-03-08T05:18:20.897Z,12.80
2023-03-08T05:20:55.645Z,16.13
2023-03-08T05:23:28.462Z,15.90
2023-03-08T05:26:00.384Z,18.67
2023-03-08T05:28:31.702Z,15.13
2023-03-08T05:31:05.831Z,15.13
2023-03-08T05:33:37.820Z,12.63
2023-03-08T05:36:09.182Z,14.43
2023-03-08T05:38:37.580Z,14.37
2023-03-08T05:41:13.203Z,15.50
2023-03-08T05:43:46.934Z,14.10
2023-03-08T05:46:19.736Z,12.83
2023-03-08T05:48:50.567Z,14.07
2023-03-08T05:51:21.060Z,14.53
2023-03-08T05:53:49.444Z,13.93
2023-03-08T05:56:21.126Z,12.93
2023-03-08T05:59:01.093Z,13.53
2023-03-08T06:01:31.133Z,13.30
2023-03-08T06:04:08.892Z,15.63
2023-03-08T06:06:40.441Z,13.93
2023-03-08T06:09:09.928Z,14.40
2023-03-08T06:11:41.102Z,13.80
2023-03-08T06:14:13.254Z,13.20
2023-03-08T06:16:43.514Z,10.70
2023-03-08T06:19:12.937Z,12.70
2023-03-08T06:21:41.754Z,10.17
2023-03-08T06:24:10.024Z,12.40
2023-03-08T06:26:38.426Z,11.63
2023-03-08T06:29:07.063Z,10.93
2023-03-08T06:31:36.619Z,11.90
2023-03-08T06:34:06.550Z,9.57
2023-03-08T06:36:35.085Z,10.90
2023-03-08T06:39:07.016Z,8.77
2023-03-08T06:41:35.343Z,12.03
2023-03-08T06:44:04.475Z,10.37
2023-03-08T06:46:35.457Z,14.63
2023-03-08T06:49:05.362Z,14.30
2023-03-08T06:51:35.532Z,12.07
2023-03-08T06:54:03.705Z,13.17
2023-03-08T06:56:32.094Z,10.13
2023-03-08T06:59:03.384Z,11.13
2023-03-08T07:01:31.519Z,10.63
2023-03-08T07:04:02.377Z,13.73
2023-03-08T07:06:32.466Z,16.70
2023-03-08T07:09:01.033Z,15.83
2023-03-08T07:11:31.026Z,10.23
2023-03-08T07:13:59.925Z,15.33
2023-03-08T07:16:30.218Z,16.70
2023-03-08T07:18:58.502Z,22.20
2023-03-08T07:21:26.668Z,17.23
2023-03-08T07:23:56.950Z,17.27
2023-03-08T07:26:27.417Z,11.67
2023-03-08T07:28:58.435Z,13.17
2023-03-08T07:31:27.951Z,11.93
2023-03-08T07:33:56.979Z,9.77
2023-03-08T07:36:25.095Z,8.30
2023-03-08T07:38:57.061Z,14.53
2023-03-08T07:41:25.228Z,7.33
2023-03-08T07:43:53.785Z,6.20
2023-03-08T07:46:25.993Z,9.00
2023-03-08T07:48:55.521Z,6.30
2023-03-08T07:51:24.174Z,9.00
2023-03-08T07:53:55.039Z,7.63
2023-03-08T07:56:24.709Z,8.20
2023-03-08T07:58:52.822Z,7.80
2023-03-08T08:01:21.865Z,8.70
2023-03-08T08:03:53.022Z,8.07
2023-03-08T08:06:22.371Z,9.87
2023-03-08T08:08:50.550Z,10.93
2023-03-08T08:11:21.017Z,7.20
2023-03-08T08:16:42.905Z,7.97
2023-03-08T08:19:12.425Z,7.40
2023-03-08T08:21:40.565Z,5.73
2023-03-08T08:24:09.814Z,5.03
2023-03-08T08:26:37.938Z,10.57
2023-03-08T08:29:09.498Z,6.97
2023-03-08T08:31:38.092Z,6.07
2023-03-08T08:34:06.502Z,8.10
2023-03-08T08:36:34.666Z,6.77
2023-03-08T08:39:03.073Z,5.77
2023-03-08T08:41:34.303Z,4.97
2023-03-08T08:44:02.942Z,6.23
2023-03-08T08:46:34.207Z,3.57
2023-03-08T08:49:06.828Z,7.37
2023-03-08T08:51:35.052Z,7.53
2023-03-08T08:54:03.410Z,6.77
2023-03-08T08:56:31.930Z,7.27
2023-03-08T08:59:03.129Z,7.33
2023-03-08T09:01:35.710Z,5.47
2023-03-08T09:04:04.241Z,3.67
2023-03-08T09:06:33.088Z,2.97
2023-03-08T09:09:01.387Z,8.60
2023-03-08T09:11:30.118Z,3.80
2023-03-08T09:14:02.952Z,4.87
2023-03-08T09:16:34.680Z,7.97
2023-03-08T09:19:05.964Z,3.80
2023-03-08T09:21:34.901Z,5.60
2023-03-08T09:24:06.614Z,3.37
2023-03-08T09:26:35.603Z,3.23
2023-03-08T09:29:08.150Z,4.47
2023-03-08T09:31:39.324Z,3.93
2023-03-08T09:34:09.310Z,3.87
2023-03-08T09:36:38.062Z,4.13
2023-03-08T09:39:08.950Z,8.63
2023-03-08T09:41:48.151Z,6.60
2023-03-08T09:44:52.702Z,8.17
2023-03-08T09:47:36.150Z,4.80
2023-03-08T09:50:18.323Z,5.83
2023-03-08T09:52:50.683Z,4.53
2023-03-08T09:55:30.225Z,4.60
2023-03-08T09:58:01.082Z,3.77
2023-03-08T10:00:33.037Z,3.40
2023-03-08T10:03:36.434Z,8.20
2023-03-08T10:06:14.641Z,2.63
2023-03-08T10:08:50.768Z,6.47
2023-03-08T10:11:25.185Z,4.40
2023-03-08T10:14:00.090Z,4.83
2023-03-08T10:16:30.832Z,3.17
2023-03-08T10:19:06.373Z,4.13
2023-03-08T10:21:38.812Z,6.30
2023-03-08T10:24:19.983Z,3.87
2023-03-08T10:26:48.105Z,7.50
2023-03-08T10:29:16.313Z,6.70
2023-03-08T10:31:48.876Z,7.93
2023-03-08T10:34:20.883Z,6.97
2023-03-08T10:36:53.028Z,5.47
2023-03-08T10:39:23.984Z,5.63
2023-03-08T10:41:55.097Z,5.60
2023-03-08T10:44:35.032Z,5.27
2023-03-08T10:47:16.825Z,4.73
2023-03-08T10:49:47.805Z,4.67
2023-03-08T10:52:25.557Z,5.53
2023-03-08T10:55:04.377Z,6.53
2023-03-08T10:57:33.709Z,6.10
2023-03-08T11:00:12.295Z,4.57
2023-03-08T11:02:42.018Z,4.57
2023-03-08T11:05:24.020Z,3.60
2023-03-08T11:07:53.549Z,3.30
2023-03-08T11:13:25.429Z,3.97
2023-03-08T11:16:03.441Z,4.50
2023-03-08T11:18:43.834Z,5.17
2023-03-08T11:21:20.529Z,3.20
2023-03-08T11:23:55.011Z,5.77
2023-03-08T11:26:32.026Z,3.10
2023-03-08T11:29:13.094Z,6.23
2023-03-08T11:31:49.033Z,3.40
2023-03-08T11:34:43.987Z,5.77
2023-03-08T11:37:21.747Z,7.17
2023-03-08T11:39:56.247Z,4.43
2023-03-08T11:42:33.691Z,4.10
2023-03-08T11:45:18.332Z,4.93
2023-03-08T11:48:13.863Z,5.37
2023-03-08T11:50:48.673Z,3.70
2023-03-08T11:53:26.984Z,5.00
2023-03-08T11:56:19.050Z,4.03
2023-03-08T11:58:51.242Z,5.63
2023-03-08T12:01:25.427Z,4.47
2023-03-08T12:03:57.316Z,4.43
2023-03-08T12:06:33.887Z,8.23
2023-03-08T12:09:08.854Z,7.87
2023-03-08T12:11:43.035Z,4.80
2023-03-08T12:14:17.694Z,4.40
2023-03-08T12:16:51.007Z,6.70
2023-03-08T12:19:28.084Z,3.50
2023-03-08T12:22:04.236Z,5.93
2023-03-08T12:24:51.400Z,4.90
2023-03-08T12:27:25.193Z,6.30
2023-03-08T12:30:04.578Z,13.60
2023-03-08T12:35:31.855Z,6.17
2023-03-08T12:38:03.131Z,4.83
2023-03-08T12:40:40.928Z,2.50
2023-03-08T12:43:13.073Z,3.50
2023-03-08T12:45:42.659Z,3.70
2023-03-08T12:48:19.853Z,3.53
2023-03-08T12:51:00.179Z,4.13
2023-03-08T12:53:37.053Z,5.07
2023-03-08T12:56:22.681Z,4.43
2023-03-08T12:58:54.104Z,4.40
2023-03-08T13:01:37.949Z,5.50
2023-03-08T13:04:44.712Z,5.80
2023-03-08T13:07:27.760Z,5.30
2023-03-08T13:10:05.072Z,3.17
2023-03-08T13:12:51.448Z,5.33
2023-03-08T13:15:24.094Z,3.10
2023-03-08T13:18:03.957Z,6.30
2023-03-08T13:20:52.724Z,8.73
2023-03-08T13:23:28.368Z,4.17
2023-03-08T13:26:14.446Z,5.90
2023-03-08T13:28:47.974Z,5.87
2023-03-08T13:31:19.154Z,3.20
2023-03-08T13:33:49.938Z,2.93
2023-03-08T13:36:21.586Z,7.77
2023-03-08T13:39:01.803Z,5.60
2023-03-08T13:41:36.215Z,4.10
2023-03-08T13:44:09.092Z,2.57
2023-03-08T13:46:40.054Z,3.40
2023-03-08T13:49:18.076Z,3.73
2023-03-08T13:51:50.965Z,4.00
2023-03-08T13:54:29.858Z,4.63
2023-03-08T13:56:59.104Z,4.57
2023-03-08T13:59:28.765Z,4.90
2023-03-08T14:01:57.598Z,7.07
2023-03-08T14:04:28.156Z,3.33
2023-03-08T14:06:58.085Z,4.53
2023-03-08T14:09:26.996Z,5.93
2023-03-08T14:12:00.818Z,7.90
2023-03-08T14:14:33.705Z,7.27
2023-03-08T14:17:06.261Z,5.77
2023-03-08T14:19:37.200Z,5.43
2023-03-08T14:22:13.350Z,6.67
2023-03-08T14:24:43.504Z,5.93
2023-03-08T14:27:32.985Z,4.47
2023-03-08T14:30:13.782Z,6.03
2023-03-08T14:33:06.248Z,9.57
2023-03-08T14:35:37.757Z,7.57
2023-03-08T14:38:14.883Z,6.60
2023-03-08T14:40:50.406Z,5.93
2023-03-08T14:43:20.848Z,3.47
2023-03-08T14:45:56.290Z,5.20
2023-03-08T14:48:26.624Z,8.63
2023-03-08T14:50:59.107Z,7.85
2023-03-08T14:53:32.114Z,6.80
2023-03-08T14:56:01.985Z,4.03
2023-03-08T14:58:34.995Z,6.60
2023-03-08T15:01:08.589Z,5.27
2023-03-08T15:03:37.053Z,4.13
2023-03-08T15:06:13.817Z,6.97
2023-03-08T15:08:43.104Z,7.03
2023-03-08T15:11:11.231Z,6.43
2023-03-08T15:13:40.148Z,5.77
2023-03-08T15:16:14.222Z,5.50
2023-03-08T15:18:44.110Z,8.80
2023-03-08T15:21:15.138Z,8.13
2023-03-08T15:23:48.929Z,6.13
2023-03-08T15:26:23.122Z,7.87
2023-03-08T15:28:54.279Z,5.30
2023-03-08T15:31:23.922Z,6.40
2023-03-08T15:33:52.198Z,5.27
2023-03-08T15:36:21.111Z,5.70
2023-03-08T15:38:49.561Z,6.77
2023-03-08T15:41:18.432Z,5.50
2023-03-08T15:43:47.117Z,7.67
2023-03-08T15:46:16.214Z,8.40
2023-03-08T15:48:46.572Z,5.40
2023-03-08T15:51:19.466Z,7.87
2023-03-08T15:53:54.211Z,7.77
2023-03-08T15:56:22.975Z,6.07
2023-03-08T15:58:51.095Z,5.23
2023-03-08T16:01:23.245Z,6.63
2023-03-08T16:03:55.811Z,11.97
2023-03-08T16:06:24.586Z,6.40
2023-03-08T16:08:52.859Z,7.23
2023-03-08T16:11:22.836Z,7.97
2023-03-08T16:13:52.577Z,7.60
2023-03-08T16:16:21.451Z,8.00
2023-03-08T16:18:49.707Z,9.63
2023-03-08T16:21:19.565Z,9.03
2023-03-08T16:23:47.910Z,5.90
2023-03-08T16:26:17.897Z,6.43
2023-03-08T16:28:47.707Z,9.17
2023-03-08T16:31:17.307Z,11.83
2023-03-08T16:33:45.664Z,10.03
2023-03-08T16:36:14.791Z,8.50
2023-03-08T16:38:44.458Z,8.40
2023-03-08T16:41:15.424Z,9.03
2023-03-08T16:43:48.548Z,7.83
2023-03-08T16:46:18.597Z,8.17
2023-03-08T16:48:54.387Z,8.17
2023-03-08T16:51:24.757Z,8.20
2023-03-08T16:53:54.877Z,9.03
2023-03-08T16:56:24.660Z,5.87
2023-03-08T16:58:52.859Z,11.90
2023-03-08T17:01:21.612Z,8.80
2023-03-08T17:03:49.869Z,6.90
2023-03-08T17:06:20.157Z,8.37
2023-03-08T17:08:49.333Z,9.47
2023-03-08T17:11:25.391Z,8.93
2023-03-08T17:13:55.523Z,9.33
2023-03-08T17:16:26.379Z,8.03
2023-03-08T17:18:57.299Z,11.17
2023-03-08T17:21:25.705Z,7.43
2023-03-08T17:23:54.022Z,12.13
2023-03-08T17:26:24.452Z,10.83
2023-03-08T17:28:53.592Z,9.17
2023-03-08T17:31:25.208Z,6.87
2023-03-08T17:33:53.492Z,8.27
2023-03-08T17:36:22.107Z,6.70
2023-03-08T17:38:53.389Z,5.67
2023-03-08T17:41:26.906Z,12.60
2023-03-08T17:43:55.234Z,6.27
2023-03-08T17:46:25.652Z,10.50
2023-03-08T17:48:55.906Z,9.57
2023-03-08T17:51:25.827Z,10.03
2023-03-08T17:53:54.500Z,12.97
2023-03-08T17:56:25.198Z,10.33
2023-03-08T17:58:59.543Z,9.30
2023-03-08T18:01:29.630Z,8.37
2023-03-08T18:03:59.185Z,12.43
2023-03-08T18:06:30.291Z,8.27
2023-03-08T18:08:59.702Z,10.13
2023-03-08T18:11:28.674Z,12.93
2023-03-08T18:13:58.181Z,8.87
2023-03-08T18:16:27.222Z,14.20
2023-03-08T18:18:55.457Z,11.47
2023-03-08T18:21:24.177Z,9.27
2023-03-08T18:23:55.033Z,11.53
2023-03-08T18:26:28.062Z,10.03
2023-03-08T18:28:58.176Z,10.87
2023-03-08T18:31:28.257Z,11.07
2023-03-08T18:33:58.010Z,11.50
2023-03-08T18:36:26.770Z,9.77
2023-03-08T18:38:55.167Z,9.07
2023-03-08T18:41:25.691Z,10.43
2023-03-08T18:43:55.459Z,11.33
2023-03-08T18:46:29.367Z,9.67
2023-03-08T18:48:58.890Z,10.20
2023-03-08T18:51:27.239Z,10.27
2023-03-08T18:54:02.232Z,10.57
2023-03-08T18:56:31.119Z,12.63
2023-03-08T18:59:02.844Z,9.80
2023-03-08T19:01:33.259Z,9.20
2023-03-08T19:04:06.268Z,9.67
2023-03-08T19:06:35.016Z,13.50
2023-03-08T19:09:09.094Z,17.67
2023-03-08T19:11:38.544Z,22.87
2023-03-08T19:14:06.777Z,28.33
2023-03-08T19:16:37.123Z,32.40
2023-03-08T19:19:08.894Z,25.40
2023-03-08T19:21:42.363Z,20.13
2023-03-08T19:24:12.675Z,13.57
2023-03-08T19:26:43.136Z,11.50
2023-03-08T19:29:15.137Z,10.20
2023-03-08T19:31:46.504Z,16.90
2023-03-08T19:34:15.198Z,12.20
2023-03-08T19:36:44.378Z,11.90
2023-03-08T19:39:19.994Z,10.87
2023-03-08T19:41:50.084Z,9.57
2023-03-08T19:44:18.458Z,12.23
2023-03-08T19:46:48.393Z,10.90
2023-03-08T19:49:21.861Z,9.60
2023-03-08T19:51:51.075Z,12.53
2023-03-08T19:54:19.603Z,10.07
2023-03-08T19:56:48.364Z,10.00
2023-03-08T19:59:16.926Z,9.37
2023-03-08T20:01:46.171Z,10.80
2023-03-08T20:04:15.794Z,12.33
2023-03-08T20:06:46.588Z,11.90
2023-03-08T20:09:18.375Z,13.33
2023-03-08T20:11:46.522Z,11.43
2023-03-08T20:14:14.806Z,12.53
2023-03-08T20:16:42.955Z,14.37
2023-03-08T20:19:12.224Z,11.43
2023-03-08T20:21:41.825Z,9.67
2023-03-08T20:24:10.287Z,12.63
2023-03-08T20:26:41.880Z,9.37
2023-03-08T20:29:11.204Z,10.17
2023-03-08T20:31:39.415Z,10.17
2023-03-08T20:34:07.635Z,12.30
2023-03-08T20:36:35.777Z,11.47
2023-03-08T20:39:10.267Z,11.57
2023-03-08T20:41:38.458Z,12.13
2023-03-08T20:44:06.668Z,10.77
2023-03-08T20:46:34.979Z,12.40
2023-03-08T20:49:03.379Z,55.60
2023-03-08T20:51:31.532Z,12.83
2023-03-08T20:53:59.712Z,11.83
2023-03-08T20:56:29.310Z,11.43
2023-03-08T20:59:01.248Z,14.07
2023-03-08T21:01:32.327Z,10.97
2023-03-08T21:04:05.590Z,11.87
2023-03-08T21:06:33.971Z,9.80
2023-03-08T21:09:03.138Z,12.30
2023-03-08T21:11:32.793Z,10.83
2023-03-08T21:14:00.934Z,9.97
2023-03-08T21:16:32.979Z,13.63
2023-03-08T21:19:02.648Z,11.87
2023-03-08T21:21:34.166Z,11.27
2023-03-08T21:24:04.750Z,11.90
2023-03-08T21:26:35.242Z,14.10
2023-03-08T21:29:06.053Z,13.40
2023-03-08T21:31:40.390Z,12.37
2023-03-08T21:34:14.226Z,11.73
2023-03-08T21:36:42.754Z,12.27
2023-03-08T21:39:11.896Z,13.60
2023-03-08T21:41:44.233Z,12.50
2023-03-08T21:44:15.248Z,52.10
2023-03-08T21:46:43.711Z,47.50
2023-03-08T21:49:21.555Z,17.77
2023-03-08T21:51:50.442Z,14.70
2023-03-08T21:54:19.154Z,17.50
2023-03-08T21:56:53.184Z,18.93
2023-03-08T21:59:24.256Z,21.00
2023-03-08T22:01:54.122Z,20.10
2023-03-08T22:04:22.894Z,22.47
2023-03-08T22:06:52.475Z,19.43
2023-03-08T22:09:20.623Z,23.30
2023-03-08T22:11:49.233Z,26.17
2023-03-08T22:14:18.873Z,25.77
2023-03-08T22:16:47.012Z,24.40
2023-03-08T22:19:15.175Z,21.90
2023-03-08T22:21:49.545Z,20.40
2023-03-08T22:24:18.258Z,21.07
2023-03-08T22:26:46.436Z,20.47
2023-03-08T22:29:16.293Z,19.50
2023-03-08T22:31:45.877Z,34.73
2023-03-08T22:34:14.004Z,48.50
2023-03-08T22:36:44.307Z,24.13
2023-03-08T22:39:13.169Z,18.93
2023-03-08T22:41:41.369Z,26.30
2023-03-08T22:44:13.454Z,24.23
2023-03-08T22:46:47.260Z,26.20
2023-03-08T22:49:17.178Z,23.43
2023-03-08T22:51:45.474Z,22.50
2023-03-08T22:54:17.286Z,23.00
2023-03-08T22:56:46.221Z,19.70
2023-03-08T22:59:15.243Z,20.53
2023-03-08T23:01:43.424Z,22.40
2023-03-08T23:04:14.609Z,23.13
2023-03-08T23:06:42.794Z,20.57
2023-03-08T23:09:13.274Z,20.87
2023-03-08T23:11:43.256Z,23.80
2023-03-08T23:14:12.744Z,26.67
2023-03-08T23:16:43.397Z,36.03
2023-03-08T23:19:16.380Z,53.70
2023-03-08T23:21:45.736Z,31.13
2023-03-08T23:24:14.499Z,28.27
2023-03-08T23:26:48.415Z,30.00
2023-03-08T23:29:17.313Z,30.50
2023-03-08T23:31:47.159Z,32.13
2023-03-08T23:34:17.359Z,30.23
2023-03-08T23:36:45.844Z,32.07
2023-03-08T23:39:14.364Z,32.07
2023-03-08T23:41:45.049Z,27.37
2023-03-08T23:44:13.593Z,32.50
2023-03-08T23:46:46.392Z,28.47
2023-03-08T23:49:17.092Z,28.77
2023-03-08T23:51:45.421Z,27.97
2023-03-08T23:54:15.149Z,26.67
2023-03-08T23:56:45.330Z,26.93
2023-03-08T23:59:18.203Z,26.73
